sensor_id;sensor_type;location;lat;lon;timestamp;temperature;humidity
71994;DHT22;59861;50.268;8.648;2023-03-23T00:01:17;16.50;56.60
71994;DHT22;59861;50.268;8.648;2023-03-23T00:03:47;16.40;56.60
71994;DHT22;59861;50.268;8.648;2023-03-23T00:06:14;16.50;56.60
71994;DHT22;59861;50.268;8.648;2023-03-23T00:08:45;16.40;56.60
71994;DHT22;59861;50.268;8.648;2023-03-23T00:11:12;16.40;56.50
71994;DHT22;59861;50.268;8.648;2023-03-23T00:13:42;16.40;56.60
71994;DHT22;59861;50.268;8.648;2023-03-23T00:16:10;16.40;56.60
71994;DHT22;59861;50.268;8.648;2023-03-23T00:18:38;16.40;56.50
71994;DHT22;59861;50.268;8.648;2023-03-23T00:21:05;16.40;56.60
71994;DHT22;59861;50.268;8.648;2023-03-23T00:23:32;16.40;56.60
71994;DHT22;59861;50.268;8.648;2023-03-23T00:25:59;16.40;56.50
71994;DHT22;59861;50.268;8.648;2023-03-23T00:28:26;16.40;56.50
71994;DHT22;59861;50.268;8.648;2023-03-23T00:30:54;16.40;56.50
71994;DHT22;59861;50.268;8.648;2023-03-23T00:33:23;16.40;56.50
71994;DHT22;59861;50.268;8.648;2023-03-23T00:35:50;16.40;56.50
71994;DHT22;59861;50.268;8.648;2023-03-23T00:38:18;16.30;56.50
71994;DHT22;59861;50.268;8.648;2023-03-23T00:40:46;16.40;56.40
71994;DHT22;59861;50.268;8.648;2023-03-23T00:43:16;16.40;56.40
71994;DHT22;59861;50.268;8.648;2023-03-23T00:45:43;16.40;56.40
71994;DHT22;59861;50.268;8.648;2023-03-23T00:48:12;16.40;56.40
71994;DHT22;59861;50.268;8.648;2023-03-23T00:50:39;16.40;56.30
71994;DHT22;59861;50.268;8.648;2023-03-23T00:53:06;16.40;56.50
71994;DHT22;59861;50.268;8.648;2023-03-23T00:55:33;16.40;56.40
71994;DHT22;59861;50.268;8.648;2023-03-23T00:57:59;16.40;56.40
71994;DHT22;59861;50.268;8.648;2023-03-23T01:00:27;16.30;56.40
71994;DHT22;59861;50.268;8.648;2023-03-23T01:02:54;16.30;56.40
71994;DHT22;59861;50.268;8.648;2023-03-23T01:05:21;16.30;56.40
71994;DHT22;59861;50.268;8.648;2023-03-23T01:07:48;16.40;56.60
71994;DHT22;59861;50.268;8.648;2023-03-23T01:10:15;16.30;56.40
71994;DHT22;59861;50.268;8.648;2023-03-23T01:12:43;16.30;56.50
71994;DHT22;59861;50.268;8.648;2023-03-23T01:15:14;16.30;56.40
71994;DHT22;59861;50.268;8.648;2023-03-23T01:17:38;16.30;56.40
71994;DHT22;59861;50.268;8.648;2023-03-23T01:20:05;16.30;56.40
71994;DHT22;59861;50.268;8.648;2023-03-23T01:22:32;16.30;56.40
71994;DHT22;59861;50.268;8.648;2023-03-23T01:24:59;16.30;56.40
71994;DHT22;59861;50.268;8.648;2023-03-23T01:27:26;16.30;56.40
71994;DHT22;59861;50.268;8.648;2023-03-23T01:29:53;16.30;56.40
71994;DHT22;59861;50.268;8.648;2023-03-23T01:32:20;16.30;56.40
71994;DHT22;59861;50.268;8.648;2023-03-23T01:34:47;16.30;56.40
71994;DHT22;59861;50.268;8.648;2023-03-23T01:37:13;16.30;56.40
71994;DHT22;59861;50.268;8.648;2023-03-23T01:39:41;16.30;56.40
71994;DHT22;59861;50.268;8.648;2023-03-23T01:42:09;16.30;56.30
71994;DHT22;59861;50.268;8.648;2023-03-23T01:47:04;16.30;57.10
71994;DHT22;59861;50.268;8.648;2023-03-23T01:49:31;16.30;56.40
71994;DHT22;59861;50.268;8.648;2023-03-23T01:52:04;16.30;56.40
71994;DHT22;59861;50.268;8.648;2023-03-23T01:54:27;16.30;56.30
71994;DHT22;59861;50.268;8.648;2023-03-23T01:57:10;16.30;56.20
71994;DHT22;59861;50.268;8.648;2023-03-23T01:59:36;16.30;56.30
71994;DHT22;59861;50.268;8.648;2023-03-23T02:02:03;16.30;56.30
71994;DHT22;59861;50.268;8.648;2023-03-23T02:04:30;16.20;56.40
71994;DHT22;59861;50.268;8.648;2023-03-23T02:06:57;16.20;56.30
71994;DHT22;59861;50.268;8.648;2023-03-23T02:09:24;16.30;56.30
71994;DHT22;59861;50.268;8.648;2023-03-23T02:11:52;16.30;56.30
71994;DHT22;59861;50.268;8.648;2023-03-23T02:14:19;16.30;56.20
71994;DHT22;59861;50.268;8.648;2023-03-23T02:25:32;16.20;56.20
71994;DHT22;59861;50.268;8.648;2023-03-23T02:27:16;16.20;56.20
71994;DHT22;59861;50.268;8.648;2023-03-23T02:29:48;16.20;56.20
71994;DHT22;59861;50.268;8.648;2023-03-23T02:32:29;16.20;56.20
71994;DHT22;59861;50.268;8.648;2023-03-23T02:35:06;16.20;56.20
71994;DHT22;59861;50.268;8.648;2023-03-23T02:37:36;16.20;56.10
71994;DHT22;59861;50.268;8.648;2023-03-23T02:40:06;16.20;56.10
71994;DHT22;59861;50.268;8.648;2023-03-23T02:42:30;16.20;56.20
71994;DHT22;59861;50.268;8.648;2023-03-23T02:44:59;16.20;56.10
71994;DHT22;59861;50.268;8.648;2023-03-23T02:47:27;16.20;56.10
71994;DHT22;59861;50.268;8.648;2023-03-23T02:49:56;16.20;56.10
71994;DHT22;59861;50.268;8.648;2023-03-23T02:52:26;16.20;56.10
71994;DHT22;59861;50.268;8.648;2023-03-23T02:54:52;16.20;56.10
71994;DHT22;59861;50.268;8.648;2023-03-23T02:57:22;16.20;56.10
71994;DHT22;59861;50.268;8.648;2023-03-23T02:59:49;16.20;56.10
71994;DHT22;59861;50.268;8.648;2023-03-23T03:02:23;16.20;56.20
71994;DHT22;59861;50.268;8.648;2023-03-23T03:04:57;16.20;56.10
71994;DHT22;59861;50.268;8.648;2023-03-23T03:09:50;16.20;56.00
71994;DHT22;59861;50.268;8.648;2023-03-23T03:12:24;16.20;56.10
71994;DHT22;59861;50.268;8.648;2023-03-23T03:15:10;16.20;56.00
71994;DHT22;59861;50.268;8.648;2023-03-23T03:17:26;16.10;56.10
71994;DHT22;59861;50.268;8.648;2023-03-23T03:19:50;16.20;56.00
71994;DHT22;59861;50.268;8.648;2023-03-23T03:22:18;16.10;56.10
71994;DHT22;59861;50.268;8.648;2023-03-23T03:24:46;16.20;56.00
71994;DHT22;59861;50.268;8.648;2023-03-23T03:27:15;16.20;56.00
71994;DHT22;59861;50.268;8.648;2023-03-23T03:29:43;16.20;56.00
71994;DHT22;59861;50.268;8.648;2023-03-23T03:32:11;16.20;56.00
71994;DHT22;59861;50.268;8.648;2023-03-23T03:34:39;16.20;56.00
71994;DHT22;59861;50.268;8.648;2023-03-23T03:37:06;16.20;56.00
71994;DHT22;59861;50.268;8.648;2023-03-23T03:39:36;16.20;56.00
71994;DHT22;59861;50.268;8.648;2023-03-23T03:42:03;16.20;56.10
71994;DHT22;59861;50.268;8.648;2023-03-23T03:44:30;16.20;56.10
71994;DHT22;59861;50.268;8.648;2023-03-23T03:46:57;16.20;56.10
71994;DHT22;59861;50.268;8.648;2023-03-23T03:49:23;16.20;56.10
71994;DHT22;59861;50.268;8.648;2023-03-23T03:51:51;16.20;56.10
71994;DHT22;59861;50.268;8.648;2023-03-23T03:54:18;16.20;56.10
71994;DHT22;59861;50.268;8.648;2023-03-23T03:56:45;16.20;56.10
71994;DHT22;59861;50.268;8.648;2023-03-23T03:59:12;16.20;56.20
71994;DHT22;59861;50.268;8.648;2023-03-23T04:01:39;16.20;56.10
71994;DHT22;59861;50.268;8.648;2023-03-23T04:04:06;16.20;56.20
71994;DHT22;59861;50.268;8.648;2023-03-23T04:06:33;16.10;56.10
71994;DHT22;59861;50.268;8.648;2023-03-23T04:09:02;16.10;56.10
71994;DHT22;59861;50.268;8.648;2023-03-23T04:11:31;16.20;56.20
71994;DHT22;59861;50.268;8.648;2023-03-23T04:13:58;16.20;56.20
71994;DHT22;59861;50.268;8.648;2023-03-23T04:16:25;16.10;56.10
71994;DHT22;59861;50.268;8.648;2023-03-23T04:18:54;16.20;56.20
71994;DHT22;59861;50.268;8.648;2023-03-23T04:21:21;16.10;56.10
71994;DHT22;59861;50.268;8.648;2023-03-23T04:23:48;16.10;56.10
71994;DHT22;59861;50.268;8.648;2023-03-23T04:26:15;16.10;56.00
71994;DHT22;59861;50.268;8.648;2023-03-23T04:28:42;16.10;56.10
71994;DHT22;59861;50.268;8.648;2023-03-23T04:31:09;16.20;56.10
71994;DHT22;59861;50.268;8.648;2023-03-23T04:33:37;16.10;56.10
71994;DHT22;59861;50.268;8.648;2023-03-23T04:36:06;16.10;56.10
71994;DHT22;59861;50.268;8.648;2023-03-23T04:38:33;16.10;56.10
71994;DHT22;59861;50.268;8.648;2023-03-23T04:41:00;16.10;56.10
71994;DHT22;59861;50.268;8.648;2023-03-23T04:43:28;16.10;56.10
71994;DHT22;59861;50.268;8.648;2023-03-23T04:45:55;16.10;56.10
71994;DHT22;59861;50.268;8.648;2023-03-23T04:48:26;16.10;56.10
71994;DHT22;59861;50.268;8.648;2023-03-23T04:50:53;16.10;56.10
71994;DHT22;59861;50.268;8.648;2023-03-23T04:53:20;16.10;56.10
71994;DHT22;59861;50.268;8.648;2023-03-23T04:55:47;16.10;56.10
71994;DHT22;59861;50.268;8.648;2023-03-23T04:58:15;16.10;56.10
71994;DHT22;59861;50.268;8.648;2023-03-23T05:00:42;16.10;56.10
71994;DHT22;59861;50.268;8.648;2023-03-23T05:03:11;16.10;56.10
71994;DHT22;59861;50.268;8.648;2023-03-23T05:05:40;16.10;56.10
71994;DHT22;59861;50.268;8.648;2023-03-23T05:08:06;16.10;56.30
71994;DHT22;59861;50.268;8.648;2023-03-23T05:10:33;16.10;56.40
71994;DHT22;59861;50.268;8.648;2023-03-23T05:13:00;16.00;56.40
71994;DHT22;59861;50.268;8.648;2023-03-23T05:15:27;16.10;56.50
71994;DHT22;59861;50.268;8.648;2023-03-23T05:17:54;16.00;56.50
71994;DHT22;59861;50.268;8.648;2023-03-23T05:20:21;16.00;56.60
71994;DHT22;59861;50.268;8.648;2023-03-23T05:22:48;16.00;56.70
71994;DHT22;59861;50.268;8.648;2023-03-23T05:25:16;16.00;56.80
71994;DHT22;59861;50.268;8.648;2023-03-23T05:27:45;16.00;56.80
71994;DHT22;59861;50.268;8.648;2023-03-23T05:30:14;16.00;56.90
71994;DHT22;59861;50.268;8.648;2023-03-23T05:32:43;16.00;56.90
71994;DHT22;59861;50.268;8.648;2023-03-23T05:35:11;16.00;56.90
71994;DHT22;59861;50.268;8.648;2023-03-23T05:37:38;16.00;56.90
71994;DHT22;59861;50.268;8.648;2023-03-23T05:40:05;16.20;56.90
71994;DHT22;59861;50.268;8.648;2023-03-23T05:42:33;16.20;56.80
71994;DHT22;59861;50.268;8.648;2023-03-23T05:45:02;16.20;56.90
71994;DHT22;59861;50.268;8.648;2023-03-23T05:47:29;16.10;57.10
71994;DHT22;59861;50.268;8.648;2023-03-23T05:49:56;16.10;57.30
71994;DHT22;59861;50.268;8.648;2023-03-23T05:52:23;16.10;57.30
71994;DHT22;59861;50.268;8.648;2023-03-23T05:54:50;16.10;57.40
71994;DHT22;59861;50.268;8.648;2023-03-23T05:57:17;16.10;57.50
71994;DHT22;59861;50.268;8.648;2023-03-23T05:59:46;16.10;57.60
71994;DHT22;59861;50.268;8.648;2023-03-23T06:02:13;16.20;57.80
71994;DHT22;59861;50.268;8.648;2023-03-23T06:04:40;16.20;57.80
71994;DHT22;59861;50.268;8.648;2023-03-23T06:07:07;16.20;57.80
71994;DHT22;59861;50.268;8.648;2023-03-23T06:09:36;16.20;58.00
71994;DHT22;59861;50.268;8.648;2023-03-23T06:12:03;16.20;58.00
71994;DHT22;59861;50.268;8.648;2023-03-23T06:14:30;16.20;57.80
71994;DHT22;59861;50.268;8.648;2023-03-23T06:16:57;16.20;57.80
71994;DHT22;59861;50.268;8.648;2023-03-23T06:19:24;16.20;57.80
71994;DHT22;59861;50.268;8.648;2023-03-23T06:21:53;16.30;57.80
71994;DHT22;59861;50.268;8.648;2023-03-23T06:24:21;16.30;57.70
71994;DHT22;59861;50.268;8.648;2023-03-23T06:26:48;16.30;57.60
71994;DHT22;59861;50.268;8.648;2023-03-23T06:29:15;16.30;57.60
71994;DHT22;59861;50.268;8.648;2023-03-23T06:31:43;16.30;57.70
71994;DHT22;59861;50.268;8.648;2023-03-23T06:34:10;16.30;57.80
71994;DHT22;59861;50.268;8.648;2023-03-23T06:36:37;16.30;57.80
71994;DHT22;59861;50.268;8.648;2023-03-23T06:39:09;16.30;57.70
71994;DHT22;59861;50.268;8.648;2023-03-23T06:41:36;16.20;57.80
71994;DHT22;59861;50.268;8.648;2023-03-23T06:44:03;16.20;58.00
71994;DHT22;59861;50.268;8.648;2023-03-23T06:46:30;16.20;57.90
71994;DHT22;59861;50.268;8.648;2023-03-23T06:48:57;16.30;57.90
71994;DHT22;59861;50.268;8.648;2023-03-23T06:51:24;16.30;57.90
71994;DHT22;59861;50.268;8.648;2023-03-23T06:53:51;16.20;57.80
71994;DHT22;59861;50.268;8.648;2023-03-23T06:56:18;16.30;57.80
71994;DHT22;59861;50.268;8.648;2023-03-23T06:58:44;16.30;57.70
71994;DHT22;59861;50.268;8.648;2023-03-23T07:01:11;16.30;57.80
71994;DHT22;59861;50.268;8.648;2023-03-23T07:03:38;16.30;57.60
71994;DHT22;59861;50.268;8.648;2023-03-23T07:06:06;16.30;57.60
71994;DHT22;59861;50.268;8.648;2023-03-23T07:08:33;16.30;57.60
71994;DHT22;59861;50.268;8.648;2023-03-23T07:11:01;16.30;57.60
71994;DHT22;59861;50.268;8.648;2023-03-23T07:13:27;16.30;57.60
71994;DHT22;59861;50.268;8.648;2023-03-23T07:18:40;16.30;57.60
71994;DHT22;59861;50.268;8.648;2023-03-23T07:21:07;16.30;57.60
71994;DHT22;59861;50.268;8.648;2023-03-23T07:23:34;16.30;57.60
71994;DHT22;59861;50.268;8.648;2023-03-23T07:26:01;16.30;57.50
71994;DHT22;59861;50.268;8.648;2023-03-23T07:28:29;16.30;57.50
71994;DHT22;59861;50.268;8.648;2023-03-23T07:30:56;16.30;57.50
71994;DHT22;59861;50.268;8.648;2023-03-23T07:33:23;16.30;57.60
71994;DHT22;59861;50.268;8.648;2023-03-23T07:35:49;16.30;57.50
71994;DHT22;59861;50.268;8.648;2023-03-23T07:38:16;16.20;57.40
71994;DHT22;59861;50.268;8.648;2023-03-23T07:40:43;16.30;57.40
71994;DHT22;59861;50.268;8.648;2023-03-23T07:43:10;16.30;57.30
71994;DHT22;59861;50.268;8.648;2023-03-23T07:45:37;16.30;57.50
71994;DHT22;59861;50.268;8.648;2023-03-23T07:48:04;16.30;57.40
71994;DHT22;59861;50.268;8.648;2023-03-23T07:50:31;16.30;57.40
71994;DHT22;59861;50.268;8.648;2023-03-23T07:52:58;16.30;57.40
71994;DHT22;59861;50.268;8.648;2023-03-23T07:55:25;16.30;57.40
71994;DHT22;59861;50.268;8.648;2023-03-23T07:57:53;16.20;57.30
71994;DHT22;59861;50.268;8.648;2023-03-23T08:00:20;16.20;57.30
71994;DHT22;59861;50.268;8.648;2023-03-23T08:02:56;16.30;57.40
71994;DHT22;59861;50.268;8.648;2023-03-23T08:05:21;16.20;57.30
71994;DHT22;59861;50.268;8.648;2023-03-23T08:07:49;16.20;57.30
71994;DHT22;59861;50.268;8.648;2023-03-23T08:10:16;16.20;57.30
71994;DHT22;59861;50.268;8.648;2023-03-23T08:12:43;16.20;57.20
71994;DHT22;59861;50.268;8.648;2023-03-23T08:15:13;16.20;57.30
71994;DHT22;59861;50.268;8.648;2023-03-23T08:17:40;16.20;57.20
71994;DHT22;59861;50.268;8.648;2023-03-23T08:20:07;16.20;57.20
71994;DHT22;59861;50.268;8.648;2023-03-23T08:22:36;16.20;57.20
71994;DHT22;59861;50.268;8.648;2023-03-23T08:25:04;16.20;57.10
71994;DHT22;59861;50.268;8.648;2023-03-23T08:27:32;16.20;57.10
71994;DHT22;59861;50.268;8.648;2023-03-23T08:29:59;16.20;57.10
71994;DHT22;59861;50.268;8.648;2023-03-23T08:32:26;16.20;57.10
71994;DHT22;59861;50.268;8.648;2023-03-23T08:34:53;16.20;57.00
71994;DHT22;59861;50.268;8.648;2023-03-23T08:37:20;16.20;57.20
71994;DHT22;59861;50.268;8.648;2023-03-23T08:39:50;16.20;57.40
71994;DHT22;59861;50.268;8.648;2023-03-23T08:42:17;16.20;57.30
71994;DHT22;59861;50.268;8.648;2023-03-23T08:44:44;16.20;57.40
71994;DHT22;59861;50.268;8.648;2023-03-23T08:47:11;16.20;57.40
71994;DHT22;59861;50.268;8.648;2023-03-23T08:49:37;16.20;57.40
71994;DHT22;59861;50.268;8.648;2023-03-23T08:52:04;16.20;57.40
71994;DHT22;59861;50.268;8.648;2023-03-23T08:54:31;16.20;57.40
71994;DHT22;59861;50.268;8.648;2023-03-23T08:57:02;16.20;57.30
71994;DHT22;59861;50.268;8.648;2023-03-23T08:59:26;16.20;57.30
71994;DHT22;59861;50.268;8.648;2023-03-23T09:01:53;16.20;57.30
71994;DHT22;59861;50.268;8.648;2023-03-23T09:04:20;16.20;57.30
71994;DHT22;59861;50.268;8.648;2023-03-23T09:06:47;16.20;57.30
71994;DHT22;59861;50.268;8.648;2023-03-23T09:09:14;16.20;57.30
71994;DHT22;59861;50.268;8.648;2023-03-23T09:11:41;16.20;57.30
71994;DHT22;59861;50.268;8.648;2023-03-23T09:14:08;16.20;57.40
71994;DHT22;59861;50.268;8.648;2023-03-23T09:16:35;16.20;57.30
71994;DHT22;59861;50.268;8.648;2023-03-23T09:19:01;16.20;57.30
71994;DHT22;59861;50.268;8.648;2023-03-23T09:21:28;16.20;57.40
71994;DHT22;59861;50.268;8.648;2023-03-23T09:23:55;16.20;57.40
71994;DHT22;59861;50.268;8.648;2023-03-23T09:26:27;16.20;57.30
71994;DHT22;59861;50.268;8.648;2023-03-23T09:28:54;16.20;57.30
71994;DHT22;59861;50.268;8.648;2023-03-23T09:31:22;16.20;57.30
71994;DHT22;59861;50.268;8.648;2023-03-23T09:33:51;16.20;57.40
71994;DHT22;59861;50.268;8.648;2023-03-23T09:36:18;16.20;57.30
71994;DHT22;59861;50.268;8.648;2023-03-23T09:38:47;16.20;57.20
71994;DHT22;59861;50.268;8.648;2023-03-23T09:46:29;16.20;57.20
71994;DHT22;59861;50.268;8.648;2023-03-23T09:48:52;16.20;57.20
71994;DHT22;59861;50.268;8.648;2023-03-23T09:56:42;16.20;57.10
71994;DHT22;59861;50.268;8.648;2023-03-23T09:59:12;16.20;57.10
71994;DHT22;59861;50.268;8.648;2023-03-23T10:01:43;16.20;57.00
71994;DHT22;59861;50.268;8.648;2023-03-23T10:04:52;16.20;57.10
71994;DHT22;59861;50.268;8.648;2023-03-23T10:06:41;16.20;57.10
71994;DHT22;59861;50.268;8.648;2023-03-23T10:09:08;16.20;57.10
71994;DHT22;59861;50.268;8.648;2023-03-23T10:11:39;16.20;57.20
71994;DHT22;59861;50.268;8.648;2023-03-23T10:14:07;16.20;57.10
71994;DHT22;59861;50.268;8.648;2023-03-23T10:16:45;16.20;57.10
71994;DHT22;59861;50.268;8.648;2023-03-23T10:19:11;16.20;57.10
71994;DHT22;59861;50.268;8.648;2023-03-23T10:21:41;16.20;57.10
71994;DHT22;59861;50.268;8.648;2023-03-23T10:24:13;16.20;57.10
71994;DHT22;59861;50.268;8.648;2023-03-23T10:29:12;16.20;57.10
71994;DHT22;59861;50.268;8.648;2023-03-23T10:31:43;16.20;57.10
71994;DHT22;59861;50.268;8.648;2023-03-23T10:34:10;16.20;57.10
71994;DHT22;59861;50.268;8.648;2023-03-23T10:36:55;16.20;57.10
71994;DHT22;59861;50.268;8.648;2023-03-23T10:39:20;16.20;57.10
71994;DHT22;59861;50.268;8.648;2023-03-23T10:41:48;16.20;57.20
71994;DHT22;59861;50.268;8.648;2023-03-23T10:44:21;16.20;57.20
71994;DHT22;59861;50.268;8.648;2023-03-23T10:47:03;16.20;57.10
71994;DHT22;59861;50.268;8.648;2023-03-23T10:49:30;16.20;57.20
71994;DHT22;59861;50.268;8.648;2023-03-23T10:51:59;16.20;57.10
71994;DHT22;59861;50.268;8.648;2023-03-23T10:54:27;16.30;57.10
71994;DHT22;59861;50.268;8.648;2023-03-23T10:56:53;16.20;57.10
71994;DHT22;59861;50.268;8.648;2023-03-23T10:59:29;16.20;57.00
71994;DHT22;59861;50.268;8.648;2023-03-23T11:01:52;16.30;57.20
71994;DHT22;59861;50.268;8.648;2023-03-23T11:04:19;16.20;57.00
71994;DHT22;59861;50.268;8.648;2023-03-23T11:06:48;16.20;57.10
71994;DHT22;59861;50.268;8.648;2023-03-23T11:09:16;16.20;57.20
71994;DHT22;59861;50.268;8.648;2023-03-23T11:11:48;16.20;57.20
71994;DHT22;59861;50.268;8.648;2023-03-23T11:14:16;16.30;57.20
71994;DHT22;59861;50.268;8.648;2023-03-23T11:16:54;16.30;57.10
71994;DHT22;59861;50.268;8.648;2023-03-23T11:19:22;16.30;57.10
71994;DHT22;59861;50.268;8.648;2023-03-23T11:21:51;16.30;57.20
71994;DHT22;59861;50.268;8.648;2023-03-23T11:24:23;16.30;57.20
71994;DHT22;59861;50.268;8.648;2023-03-23T11:26:50;16.30;57.20
71994;DHT22;59861;50.268;8.648;2023-03-23T11:29:20;16.30;57.30
71994;DHT22;59861;50.268;8.648;2023-03-23T11:32:06;16.30;57.20
71994;DHT22;59861;50.268;8.648;2023-03-23T11:34:19;16.30;57.20
71994;DHT22;59861;50.268;8.648;2023-03-23T11:36:55;16.30;57.20
71994;DHT22;59861;50.268;8.648;2023-03-23T11:39:22;16.30;57.20
71994;DHT22;59861;50.268;8.648;2023-03-23T11:41:49;16.30;57.10
71994;DHT22;59861;50.268;8.648;2023-03-23T11:44:16;16.30;57.20
71994;DHT22;59861;50.268;8.648;2023-03-23T11:47:00;16.20;57.30
71994;DHT22;59861;50.268;8.648;2023-03-23T11:49:29;16.30;57.30
71994;DHT22;59861;50.268;8.648;2023-03-23T11:51:56;16.30;57.30
71994;DHT22;59861;50.268;8.648;2023-03-23T11:54:38;16.20;57.20
71994;DHT22;59861;50.268;8.648;2023-03-23T11:57:01;16.20;57.20
71994;DHT22;59861;50.268;8.648;2023-03-23T11:59:34;16.20;57.30
71994;DHT22;59861;50.268;8.648;2023-03-23T12:02:08;16.20;57.30
71994;DHT22;59861;50.268;8.648;2023-03-23T12:04:41;16.20;57.20
71994;DHT22;59861;50.268;8.648;2023-03-23T12:15:13;16.20;57.40
71994;DHT22;59861;50.268;8.648;2023-03-23T12:17:45;16.20;57.40
71994;DHT22;59861;50.268;8.648;2023-03-23T12:20:13;16.20;57.40
71994;DHT22;59861;50.268;8.648;2023-03-23T12:22:45;16.20;57.40
71994;DHT22;59861;50.268;8.648;2023-03-23T12:30:27;16.20;57.30
71994;DHT22;59861;50.268;8.648;2023-03-23T12:35:35;16.20;57.30
71994;DHT22;59861;50.268;8.648;2023-03-23T12:38:07;16.20;57.30
71994;DHT22;59861;50.268;8.648;2023-03-23T12:40:33;16.20;57.40
71994;DHT22;59861;50.268;8.648;2023-03-23T12:43:11;16.20;57.30
71994;DHT22;59861;50.268;8.648;2023-03-23T12:48:18;16.20;57.40
71994;DHT22;59861;50.268;8.648;2023-03-23T12:50:47;16.20;57.50
71994;DHT22;59861;50.268;8.648;2023-03-23T12:55:49;16.20;57.50
71994;DHT22;59861;50.268;8.648;2023-03-23T12:58:25;16.20;57.60
71994;DHT22;59861;50.268;8.648;2023-03-23T13:05:47;16.20;57.50
71994;DHT22;59861;50.268;8.648;2023-03-23T13:08:16;16.20;57.60
71994;DHT22;59861;50.268;8.648;2023-03-23T13:10:46;16.20;57.50
71994;DHT22;59861;50.268;8.648;2023-03-23T13:13:14;16.20;57.40
71994;DHT22;59861;50.268;8.648;2023-03-23T13:15:47;16.20;57.50
71994;DHT22;59861;50.268;8.648;2023-03-23T13:18:23;16.20;57.60
71994;DHT22;59861;50.268;8.648;2023-03-23T13:20:58;16.20;57.60
71994;DHT22;59861;50.268;8.648;2023-03-23T13:23:31;16.30;57.50
71994;DHT22;59861;50.268;8.648;2023-03-23T13:26:08;16.30;57.50
71994;DHT22;59861;50.268;8.648;2023-03-23T13:31:24;16.20;57.60
71994;DHT22;59861;50.268;8.648;2023-03-23T13:33:56;16.20;57.60
71994;DHT22;59861;50.268;8.648;2023-03-23T13:36:28;16.20;57.70
71994;DHT22;59861;50.268;8.648;2023-03-23T13:38:52;16.20;57.70
71994;DHT22;59861;50.268;8.648;2023-03-23T13:41:19;16.20;57.70
71994;DHT22;59861;50.268;8.648;2023-03-23T13:43:47;16.20;57.80
71994;DHT22;59861;50.268;8.648;2023-03-23T13:48:46;16.20;57.80
71994;DHT22;59861;50.268;8.648;2023-03-23T13:51:24;16.20;57.80
71994;DHT22;59861;50.268;8.648;2023-03-23T13:53:51;16.20;57.80
71994;DHT22;59861;50.268;8.648;2023-03-23T14:01:14;16.20;57.50
71994;DHT22;59861;50.268;8.648;2023-03-23T14:03:45;16.00;58.60
71994;DHT22;59861;50.268;8.648;2023-03-23T14:06:13;16.00;59.20
71994;DHT22;59861;50.268;8.648;2023-03-23T14:08:42;15.90;59.40
71994;DHT22;59861;50.268;8.648;2023-03-23T14:11:10;15.80;59.50
71994;DHT22;59861;50.268;8.648;2023-03-23T14:18:48;16.00;59.00
71994;DHT22;59861;50.268;8.648;2023-03-23T14:23:38;16.10;58.10
71994;DHT22;59861;50.268;8.648;2023-03-23T14:26:09;16.00;59.00
71994;DHT22;59861;50.268;8.648;2023-03-23T14:28:38;15.90;59.00
71994;DHT22;59861;50.268;8.648;2023-03-23T14:31:27;15.90;59.20
71994;DHT22;59861;50.268;8.648;2023-03-23T14:33:34;15.90;59.20
71994;DHT22;59861;50.268;8.648;2023-03-23T14:36:01;15.90;59.50
71994;DHT22;59861;50.268;8.648;2023-03-23T14:38:27;15.80;59.40
71994;DHT22;59861;50.268;8.648;2023-03-23T14:40:59;15.90;59.50
71994;DHT22;59861;50.268;8.648;2023-03-23T14:43:24;15.90;59.30
71994;DHT22;59861;50.268;8.648;2023-03-23T14:45:52;16.00;59.30
71994;DHT22;59861;50.268;8.648;2023-03-23T14:48:19;16.00;59.20
71994;DHT22;59861;50.268;8.648;2023-03-23T14:50:55;16.00;59.10
71994;DHT22;59861;50.268;8.648;2023-03-23T14:53:22;16.10;59.10
71994;DHT22;59861;50.268;8.648;2023-03-23T14:58:17;16.10;58.80
71994;DHT22;59861;50.268;8.648;2023-03-23T15:01:00;16.20;59.20
71994;DHT22;59861;50.268;8.648;2023-03-23T15:03:28;16.30;58.90
71994;DHT22;59861;50.268;8.648;2023-03-23T15:05:56;16.30;58.90
71994;DHT22;59861;50.268;8.648;2023-03-23T15:08:27;16.30;58.80
71994;DHT22;59861;50.268;8.648;2023-03-23T15:11:05;16.20;58.70
71994;DHT22;59861;50.268;8.648;2023-03-23T15:13:33;16.20;58.60
71994;DHT22;59861;50.268;8.648;2023-03-23T15:16:01;16.30;58.80
71994;DHT22;59861;50.268;8.648;2023-03-23T15:18:29;16.40;58.90
71994;DHT22;59861;50.268;8.648;2023-03-23T15:20:57;16.40;58.80
71994;DHT22;59861;50.268;8.648;2023-03-23T15:23:27;16.50;58.80
71994;DHT22;59861;50.268;8.648;2023-03-23T15:25:55;16.40;58.70
71994;DHT22;59861;50.268;8.648;2023-03-23T15:28:27;16.50;59.50
71994;DHT22;59861;50.268;8.648;2023-03-23T15:31:03;16.50;58.80
71994;DHT22;59861;50.268;8.648;2023-03-23T15:33:34;16.50;58.70
71994;DHT22;59861;50.268;8.648;2023-03-23T15:36:05;16.60;58.60
71994;DHT22;59861;50.268;8.648;2023-03-23T15:38:30;16.60;58.50
71994;DHT22;59861;50.268;8.648;2023-03-23T15:40:59;16.60;58.40
71994;DHT22;59861;50.268;8.648;2023-03-23T15:43:27;16.60;58.30
71994;DHT22;59861;50.268;8.648;2023-03-23T15:45:55;16.60;58.30
71994;DHT22;59861;50.268;8.648;2023-03-23T15:48:24;16.60;58.30
71994;DHT22;59861;50.268;8.648;2023-03-23T15:50:51;16.70;58.30
71994;DHT22;59861;50.268;8.648;2023-03-23T15:53:28;16.70;58.10
71994;DHT22;59861;50.268;8.648;2023-03-23T15:55:55;16.90;74.10
71994;DHT22;59861;50.268;8.648;2023-03-23T15:58:22;16.80;71.70
71994;DHT22;59861;50.268;8.648;2023-03-23T16:00:49;16.60;69.70
71994;DHT22;59861;50.268;8.648;2023-03-23T16:03:24;16.60;66.80
71994;DHT22;59861;50.268;8.648;2023-03-23T16:05:55;16.60;67.10
71994;DHT22;59861;50.268;8.648;2023-03-23T16:08:25;16.50;67.40
71994;DHT22;59861;50.268;8.648;2023-03-23T16:10:52;16.60;67.70
71994;DHT22;59861;50.268;8.648;2023-03-23T16:13:18;16.60;69.70
71994;DHT22;59861;50.268;8.648;2023-03-23T16:15:45;16.50;70.80
71994;DHT22;59861;50.268;8.648;2023-03-23T16:18:15;16.60;71.30
71994;DHT22;59861;50.268;8.648;2023-03-23T16:20:41;16.60;72.20
71994;DHT22;59861;50.268;8.648;2023-03-23T16:23:08;16.60;72.60
71994;DHT22;59861;50.268;8.648;2023-03-23T16:25:35;16.60;74.00
71994;DHT22;59861;50.268;8.648;2023-03-23T16:28:01;16.60;74.40
71994;DHT22;59861;50.268;8.648;2023-03-23T16:30:31;16.60;73.70
71994;DHT22;59861;50.268;8.648;2023-03-23T16:32:56;16.70;74.00
71994;DHT22;59861;50.268;8.648;2023-03-23T16:35:23;16.60;73.70
71994;DHT22;59861;50.268;8.648;2023-03-23T16:40:17;16.60;59.00
71994;DHT22;59861;50.268;8.648;2023-03-23T16:42:45;16.60;59.40
71994;DHT22;59861;50.268;8.648;2023-03-23T16:47:38;16.70;92.90
71994;DHT22;59861;50.268;8.648;2023-03-23T16:50:06;16.80;73.40
71994;DHT22;59861;50.268;8.648;2023-03-23T16:52:34;16.80;72.80
71994;DHT22;59861;50.268;8.648;2023-03-23T16:55:01;16.70;72.20
71994;DHT22;59861;50.268;8.648;2023-03-23T16:57:28;16.70;72.10